Time;durP1;ratioP1;P1;durP2;ratioP2;P2;SDS_P1;SDS_P2;PMS_P1;PMS_P2;Temp;Humidity;BMP_temperature;BMP_pressure;BME280_temperature;BME280_humidity;BME280_pressure;Samples;Min_cycle;Max_cycle;Signal;HPM_P1;HPM_P2
2021/04/16 00:01:28;;;;;;;3.70;1.42;;;3.90;99.90;;;;;;3605151;39;20427;-61
2021/04/16 00:03:54;;;;;;;1.80;1.27;;;3.90;99.90;;;;;;3603370;39;20145;-61
2021/04/16 00:06:20;;;;;;;9.15;1.60;;;3.90;99.90;;;;;;3605175;39;20120;-60
2021/04/16 00:08:46;;;;;;;5.00;1.55;;;4.00;99.90;;;;;;3603501;39;20031;-61
2021/04/16 00:11:14;;;;;;;3.95;1.63;;;4.00;99.90;;;;;;3603761;39;20092;-61
2021/04/16 00:13:41;;;;;;;2.55;1.60;;;4.00;99.90;;;;;;3604672;39;20041;-61
2021/04/16 00:16:08;;;;;;;3.13;1.23;;;4.00;99.90;;;;;;3605211;39;20278;-61
2021/04/16 00:18:34;;;;;;;3.80;1.40;;;4.00;99.90;;;;;;3603585;39;20028;-61
2021/04/16 00:21:00;;;;;;;2.80;1.50;;;4.00;99.90;;;;;;3603833;39;20064;-61
2021/04/16 00:23:27;;;;;;;3.22;1.40;;;4.00;99.90;;;;;;3604118;39;20631;-60
2021/04/16 00:25:53;;;;;;;2.55;1.50;;;4.10;99.90;;;;;;3604056;39;20031;-61
2021/04/16 00:28:19;;;;;;;3.08;1.45;;;4.10;99.90;;;;;;3604378;39;20045;-61
2021/04/16 00:30:58;;;;;;;4.93;1.40;;;4.20;99.90;;;;;;3603089;39;20032;-61
2021/04/16 00:33:25;;;;;;;2.83;1.20;;;4.30;99.90;;;;;;3603758;39;20087;-60
2021/04/16 00:35:51;;;;;;;6.32;1.48;;;4.20;99.90;;;;;;3603519;39;20044;-61
2021/04/16 00:38:19;;;;;;;3.58;1.35;;;4.20;99.90;;;;;;3604825;39;20038;-60
2021/04/16 00:40:51;;;;;;;3.80;1.30;;;4.30;99.90;;;;;;3603952;39;20078;-61
2021/04/16 00:43:19;;;;;;;4.22;1.73;;;4.30;99.90;;;;;;3604018;39;20047;-61
2021/04/16 00:45:46;;;;;;;8.57;1.38;;;4.30;99.90;;;;;;3604005;39;20055;-61
2021/04/16 00:48:22;;;;;;;6.32;1.50;;;4.30;99.90;;;;;;3604924;39;20767;-61
2021/04/16 00:50:50;;;;;;;4.90;1.40;;;4.30;99.90;;;;;;3603154;39;20409;-60
2021/04/16 00:53:19;;;;;;;6.85;1.40;;;4.30;99.90;;;;;;3603276;39;20059;-61
2021/04/16 00:55:46;;;;;;;6.72;1.50;;;4.40;99.90;;;;;;3603717;39;20042;-61
2021/04/16 00:58:11;;;;;;;4.68;1.27;;;4.40;99.90;;;;;;3603138;39;20042;-60
2021/04/16 01:00:37;;;;;;;6.00;1.50;;;4.40;99.90;;;;;;3603946;39;20422;-61
2021/04/16 01:03:05;;;;;;;2.03;1.10;;;4.50;99.90;;;;;;3603475;39;20097;-61
2021/04/16 01:05:30;;;;;;;2.70;1.20;;;4.40;99.90;;;;;;3604020;39;20618;-61
2021/04/16 01:07:56;;;;;;;5.65;1.33;;;4.50;99.90;;;;;;3602056;39;20084;-60
2021/04/16 01:10:22;;;;;;;7.20;1.30;;;4.40;99.90;;;;;;3602656;39;20100;-61
2021/04/16 01:12:48;;;;;;;5.75;1.30;;;4.40;99.90;;;;;;3602959;39;20032;-61
2021/04/16 01:15:33;;;;;;;2.97;1.08;;;4.40;99.90;;;;;;3601245;39;20806;-60
2021/04/16 01:18:07;;;;;;;4.07;1.20;;;4.40;99.90;;;;;;3603114;39;20435;-61
2021/04/16 01:20:37;;;;;;;2.47;1.13;;;4.40;99.90;;;;;;3602394;39;20192;-61
2021/04/16 01:23:11;;;;;;;9.20;1.15;;;4.50;99.90;;;;;;3603794;39;20912;-61
2021/04/16 01:25:37;;;;;;;2.03;1.13;;;4.50;99.90;;;;;;3604192;39;20031;-60
2021/04/16 01:28:04;;;;;;;2.33;1.40;;;4.50;99.90;;;;;;3603276;39;20047;-61
2021/04/16 01:30:31;;;;;;;2.97;1.00;;;4.50;99.90;;;;;;3602351;39;20031;-61
2021/04/16 01:32:58;;;;;;;3.55;1.10;;;4.50;99.90;;;;;;3603297;39;20032;-60
2021/04/16 01:35:33;;;;;;;6.22;1.25;;;4.50;99.90;;;;;;3603565;39;20383;-61
2021/04/16 01:38:02;;;;;;;3.22;1.65;;;4.60;99.90;;;;;;3602278;39;20039;-61
2021/04/16 01:40:28;;;;;;;3.33;1.40;;;4.60;99.90;;;;;;3602188;39;20036;-60
2021/04/16 01:42:53;;;;;;;2.97;1.13;;;4.60;99.90;;;;;;3604033;39;20385;-61
2021/04/16 01:45:25;;;;;;;6.28;1.20;;;4.60;99.90;;;;;;3602498;39;20035;-61
2021/04/16 01:47:59;;;;;;;5.32;1.20;;;4.60;99.90;;;;;;3601307;39;20051;-61
2021/04/16 01:50:26;;;;;;;4.10;1.35;;;4.60;99.90;;;;;;3602492;39;20047;-61
2021/04/16 01:52:52;;;;;;;6.80;1.73;;;4.60;99.90;;;;;;3603036;39;20042;-61
2021/04/16 01:55:19;;;;;;;4.25;1.10;;;4.50;99.90;;;;;;3601706;39;20410;-60
2021/04/16 01:57:46;;;;;;;3.45;1.40;;;4.60;99.90;;;;;;3602296;39;20055;-61
2021/04/16 02:00:16;;;;;;;5.28;1.40;;;4.60;99.90;;;;;;3601612;39;20027;-61
2021/04/16 02:02:42;;;;;;;4.50;1.42;;;4.70;99.90;;;;;;3604137;39;20047;-60
2021/04/16 02:05:08;;;;;;;4.63;1.30;;;4.70;99.90;;;;;;3601746;39;20039;-61
2021/04/16 02:07:34;;;;;;;9.35;1.95;;;4.50;99.90;;;;;;3605213;39;20043;-60
2021/04/16 02:10:00;;;;;;;5.47;1.42;;;4.50;99.90;;;;;;3602253;39;20072;-60
2021/04/16 02:12:26;;;;;;;3.15;1.10;;;4.60;99.90;;;;;;3603794;39;20452;-61
2021/04/16 02:14:54;;;;;;;3.58;1.40;;;4.50;99.90;;;;;;3602324;39;20034;-61
2021/04/16 02:17:23;;;;;;;3.38;1.02;;;4.50;99.90;;;;;;3602024;39;20058;-61
2021/04/16 02:19:49;;;;;;;2.05;1.10;;;4.50;99.90;;;;;;3601305;39;20135;-60
2021/04/16 02:22:18;;;;;;;4.32;1.30;;;4.50;99.90;;;;;;3600557;39;20039;-60
2021/04/16 02:24:44;;;;;;;2.50;1.02;;;4.50;99.90;;;;;;3600873;39;20036;-60
2021/04/16 02:27:12;;;;;;;3.67;1.23;;;4.50;99.90;;;;;;3602633;39;20051;-61
2021/04/16 02:29:38;;;;;;;2.97;1.48;;;4.50;99.90;;;;;;3603575;39;20410;-61
2021/04/16 02:32:05;;;;;;;2.22;1.08;;;4.50;99.90;;;;;;3604417;39;20808;-61
2021/04/16 02:34:31;;;;;;;3.35;1.38;;;4.50;99.90;;;;;;3601983;39;20091;-60
2021/04/16 02:37:01;;;;;;;4.53;1.40;;;4.50;99.90;;;;;;3603489;39;20525;-61
2021/04/16 02:39:28;;;;;;;6.80;2.05;;;4.60;99.90;;;;;;3602972;39;20039;-61
2021/04/16 02:41:55;;;;;;;8.20;1.55;;;4.60;99.90;;;;;;3603308;39;20031;-61
2021/04/16 02:44:21;;;;;;;4.47;1.20;;;4.70;99.90;;;;;;3604517;39;20131;-60
2021/04/16 02:46:48;;;;;;;5.72;1.30;;;4.70;99.90;;;;;;3602540;39;20044;-61
2021/04/16 02:49:14;;;;;;;2.35;1.10;;;4.60;99.90;;;;;;3603543;39;20031;-60
2021/04/16 02:51:40;;;;;;;3.25;1.23;;;4.60;99.90;;;;;;3602918;39;20028;-61
2021/04/16 02:54:06;;;;;;;5.35;1.95;;;4.60;99.90;;;;;;3603789;39;20098;-61
2021/04/16 02:56:32;;;;;;;3.85;1.00;;;4.60;99.90;;;;;;3603107;39;20047;-61
2021/04/16 02:58:58;;;;;;;3.97;1.23;;;4.60;99.90;;;;;;3603691;39;20396;-61
2021/04/16 03:01:27;;;;;;;4.57;1.40;;;4.50;99.90;;;;;;3602675;39;20039;-61
2021/04/16 03:03:54;;;;;;;4.45;1.48;;;4.60;99.90;;;;;;3604836;39;20046;-61
2021/04/16 03:06:21;;;;;;;3.45;1.15;;;4.60;99.90;;;;;;3601130;39;20076;-61
2021/04/16 03:08:52;;;;;;;5.43;1.52;;;4.60;99.90;;;;;;3602156;39;20031;-61
2021/04/16 03:11:18;;;;;;;5.25;1.30;;;4.60;99.90;;;;;;3600487;39;20316;-61
2021/04/16 03:13:44;;;;;;;4.13;1.20;;;4.60;99.90;;;;;;3601397;39;20044;-61
2021/04/16 03:16:09;;;;;;;5.78;1.15;;;4.60;99.90;;;;;;3603826;39;20035;-61
2021/04/16 03:18:35;;;;;;;5.53;1.33;;;4.70;99.90;;;;;;3601197;39;20042;-61
2021/04/16 03:21:01;;;;;;;4.25;1.00;;;4.70;99.90;;;;;;3602341;39;20894;-61
2021/04/16 03:23:26;;;;;;;5.72;1.67;;;4.70;99.90;;;;;;3605712;39;20035;-61
2021/04/16 03:25:52;;;;;;;4.93;0.98;;;4.60;99.90;;;;;;3603035;39;20181;-61
2021/04/16 03:28:18;;;;;;;2.22;1.40;;;4.50;99.90;;;;;;3602269;39;20507;-61
2021/04/16 03:30:43;;;;;;;4.35;1.30;;;4.50;99.90;;;;;;3602212;39;20335;-61
2021/04/16 03:33:09;;;;;;;2.72;1.17;;;4.50;99.90;;;;;;3608247;39;20039;-60
2021/04/16 03:35:35;;;;;;;3.78;1.20;;;4.60;99.90;;;;;;3604554;39;20050;-60
2021/04/16 03:38:01;;;;;;;4.28;1.50;;;4.50;99.90;;;;;;3603000;39;20452;-60
2021/04/16 03:40:30;;;;;;;1.75;1.10;;;4.60;99.90;;;;;;3603018;39;20111;-60
2021/04/16 03:42:56;;;;;;;4.97;1.40;;;4.60;99.90;;;;;;3600251;39;20041;-61
2021/04/16 03:45:22;;;;;;;6.07;1.48;;;4.60;99.90;;;;;;3603812;39;20289;-61
2021/04/16 03:47:49;;;;;;;4.20;1.30;;;4.70;99.90;;;;;;3602479;39;20127;-61
2021/04/16 03:50:19;;;;;;;4.07;1.40;;;4.70;99.90;;;;;;3603516;39;20404;-60
2021/04/16 03:52:46;;;;;;;5.13;1.67;;;4.60;99.90;;;;;;3601371;39;20031;-60
2021/04/16 03:55:13;;;;;;;9.35;1.45;;;4.60;99.90;;;;;;3603848;39;20023;-60
2021/04/16 03:57:39;;;;;;;4.72;1.50;;;4.60;99.90;;;;;;3602058;39;20039;-60
2021/04/16 04:00:08;;;;;;;4.72;1.35;;;4.60;99.90;;;;;;3602806;39;20027;-61
2021/04/16 04:02:33;;;;;;;3.80;1.42;;;4.50;99.90;;;;;;3594192;39;20332;-61
2021/04/16 04:04:59;;;;;;;3.97;1.58;;;4.50;99.90;;;;;;3603363;39;20046;-61
2021/04/16 04:07:25;;;;;;;4.00;1.48;;;4.50;99.90;;;;;;3604754;39;20039;-60
2021/04/16 04:09:51;;;;;;;3.63;1.42;;;4.50;99.90;;;;;;3606410;39;20046;-60
2021/04/16 04:12:16;;;;;;;6.32;1.45;;;4.40;99.90;;;;;;3602146;39;20147;-61
2021/04/16 04:14:42;;;;;;;5.70;1.70;;;4.40;99.90;;;;;;3606420;39;20409;-61
2021/04/16 04:17:09;;;;;;;3.05;1.42;;;4.40;99.90;;;;;;3600563;39;20059;-60
2021/04/16 04:19:36;;;;;;;7.15;1.20;;;4.60;99.90;;;;;;3604260;39;20027;-61
2021/04/16 04:22:04;;;;;;;2.72;1.27;;;4.50;99.90;;;;;;3602150;39;20136;-60
2021/04/16 04:24:30;;;;;;;5.75;1.30;;;4.50;99.90;;;;;;3604523;39;20056;-61
2021/04/16 04:26:55;;;;;;;4.10;1.23;;;4.50;99.90;;;;;;3606058;39;20081;-60
2021/04/16 04:29:25;;;;;;;6.20;1.38;;;4.50;99.90;;;;;;3602480;39;20302;-60
2021/04/16 04:31:52;;;;;;;8.57;1.85;;;4.40;99.90;;;;;;3605566;39;20281;-60
2021/04/16 04:34:23;;;;;;;2.28;1.10;;;4.40;99.90;;;;;;3602994;39;20035;-60
2021/04/16 04:36:51;;;;;;;5.72;1.30;;;4.30;99.90;;;;;;3605130;39;20027;-60
2021/04/16 04:39:18;;;;;;;3.33;1.25;;;4.30;99.90;;;;;;3604806;39;20043;-60
2021/04/16 04:41:44;;;;;;;8.77;1.30;;;4.30;99.90;;;;;;3603103;39;20028;-60
2021/04/16 04:44:10;;;;;;;7.43;1.40;;;4.20;99.90;;;;;;3603173;39;20094;-60
2021/04/16 04:46:36;;;;;;;5.70;1.40;;;4.20;99.90;;;;;;3605603;39;20790;-60
2021/04/16 04:49:04;;;;;;;7.30;1.40;;;4.20;99.90;;;;;;3603735;39;20047;-60
2021/04/16 04:51:29;;;;;;;4.88;1.60;;;4.30;99.90;;;;;;3603285;39;20040;-60
2021/04/16 04:53:55;;;;;;;5.90;2.33;;;4.40;99.90;;;;;;3602465;39;20050;-62
2021/04/16 04:56:21;;;;;;;3.60;1.30;;;4.40;99.90;;;;;;3603864;39;20032;-60
2021/04/16 04:58:47;;;;;;;5.60;2.40;;;4.40;99.90;;;;;;3603225;39;20111;-61
2021/04/16 05:01:13;;;;;;;2.97;1.25;;;4.50;99.90;;;;;;3602443;39;20023;-61
2021/04/16 05:03:38;;;;;;;4.63;1.60;;;4.50;99.90;;;;;;3604275;39;20475;-60
2021/04/16 05:06:04;;;;;;;6.18;2.10;;;4.50;99.90;;;;;;3603373;39;20043;-61
2021/04/16 05:08:30;;;;;;;8.93;2.28;;;4.60;99.90;;;;;;3600936;39;20031;-61
2021/04/16 05:10:56;;;;;;;8.15;1.75;;;4.70;99.90;;;;;;3603008;39;20031;-60
2021/04/16 05:13:21;;;;;;;6.97;1.60;;;4.80;99.90;;;;;;3602643;39;20043;-60
2021/04/16 05:15:47;;;;;;;9.10;1.88;;;4.80;99.90;;;;;;3604460;39;20573;-60
2021/04/16 05:18:13;;;;;;;8.23;2.25;;;4.90;99.90;;;;;;3603342;39;20028;-60
2021/04/16 05:20:39;;;;;;;7.80;1.80;;;5.00;99.90;;;;;;3603903;39;20034;-60
2021/04/16 05:23:04;;;;;;;5.68;1.75;;;4.90;99.90;;;;;;3604927;39;20028;-61
2021/04/16 05:25:30;;;;;;;6.72;1.60;;;4.90;99.90;;;;;;3601716;39;20051;-60
2021/04/16 05:27:56;;;;;;;7.18;1.60;;;5.00;99.90;;;;;;3601842;39;20299;-60
2021/04/16 05:30:22;;;;;;;5.95;1.58;;;5.10;99.90;;;;;;3600709;39;20067;-61
2021/04/16 05:32:48;;;;;;;10.30;1.85;;;5.20;99.90;;;;;;3603382;39;20043;-60
2021/04/16 05:35:15;;;;;;;9.10;1.50;;;5.20;99.90;;;;;;3602496;39;20046;-61
2021/04/16 05:37:41;;;;;;;7.45;1.60;;;5.20;99.90;;;;;;3603890;39;20145;-60
2021/04/16 05:40:08;;;;;;;7.63;1.75;;;5.30;99.90;;;;;;3602223;39;20035;-60
2021/04/16 05:42:34;;;;;;;6.13;1.58;;;5.40;99.90;;;;;;3601591;39;20036;-60
2021/04/16 05:45:01;;;;;;;7.35;1.65;;;5.40;99.90;;;;;;3604073;39;20024;-60
2021/04/16 05:47:30;;;;;;;6.63;1.83;;;5.50;99.90;;;;;;3603299;39;20030;-60
2021/04/16 05:49:56;;;;;;;8.63;1.50;;;5.60;99.90;;;;;;3602768;39;20470;-60
2021/04/16 05:52:22;;;;;;;7.00;2.03;;;5.70;99.90;;;;;;3600267;39;20040;-60
2021/04/16 05:54:48;;;;;;;7.30;1.40;;;5.80;99.90;;;;;;3600779;39;20036;-60
2021/04/16 05:57:14;;;;;;;8.20;1.50;;;5.90;99.90;;;;;;3602254;39;20028;-60
2021/04/16 05:59:40;;;;;;;3.55;1.40;;;5.90;99.90;;;;;;3601634;39;20026;-62
2021/04/16 06:02:26;;;;;;;4.40;1.67;;;5.90;99.90;;;;;;3602730;39;20039;-60
2021/04/16 06:04:53;;;;;;;7.25;2.30;;;6.00;99.90;;;;;;3603927;39;20042;-60
2021/04/16 06:07:19;;;;;;;6.85;1.80;;;6.10;99.90;;;;;;3604148;39;20031;-61
2021/04/16 06:09:45;;;;;;;8.02;2.13;;;6.20;99.90;;;;;;3605134;39;20047;-60
2021/04/16 06:12:11;;;;;;;6.97;1.42;;;6.40;99.90;;;;;;3603018;39;20402;-60
2021/04/16 06:14:37;;;;;;;6.68;1.50;;;6.30;99.90;;;;;;3601844;39;20028;-60
2021/04/16 06:17:03;;;;;;;5.32;1.30;;;6.40;99.90;;;;;;3601227;39;20040;-60
2021/04/16 06:19:28;;;;;;;7.28;1.20;;;6.50;99.90;;;;;;3602859;39;20684;-60
2021/04/16 06:21:54;;;;;;;10.20;1.60;;;6.40;99.90;;;;;;3605710;39;20035;-60
2021/04/16 06:24:20;;;;;;;8.30;1.50;;;6.40;99.90;;;;;;3604203;39;20035;-60
2021/04/16 06:26:45;;;;;;;4.05;1.77;;;6.50;99.90;;;;;;3605080;39;20055;-60
2021/04/16 06:29:11;;;;;;;8.45;1.67;;;6.40;99.90;;;;;;3603240;39;20157;-60
2021/04/16 06:31:37;;;;;;;19.42;2.50;;;6.60;99.90;;;;;;3599712;39;20046;-60
2021/04/16 06:34:03;;;;;;;12.70;2.47;;;6.60;99.90;;;;;;3604645;39;20063;-60
2021/04/16 06:36:29;;;;;;;9.70;1.90;;;6.70;99.90;;;;;;3603300;39;20050;-61
2021/04/16 06:38:54;;;;;;;7.38;1.10;;;6.90;99.90;;;;;;3603674;39;20039;-60
2021/04/16 06:41:30;;;;;;;4.13;1.30;;;7.10;99.90;;;;;;3602385;39;20109;-61
2021/04/16 06:44:02;;;;;;;4.57;1.40;;;7.20;99.90;;;;;;3601896;39;20059;-60
2021/04/16 06:46:39;;;;;;;6.25;1.58;;;7.40;99.90;;;;;;3600125;39;20032;-60
2021/04/16 06:49:24;;;;;;;8.25;1.55;;;7.40;99.90;;;;;;3601643;39;20043;-60
2021/04/16 06:52:06;;;;;;;4.93;1.48;;;7.70;99.90;;;;;;3603753;39;20380;-61
2021/04/16 06:54:50;;;;;;;6.72;1.40;;;7.70;99.90;;;;;;3603395;39;20044;-60
2021/04/16 06:57:26;;;;;;;8.48;1.80;;;7.70;99.90;;;;;;3602594;39;20046;-60
2021/04/16 07:00:01;;;;;;;2.83;1.15;;;7.80;99.90;;;;;;3602535;39;20072;-60
2021/04/16 07:02:38;;;;;;;4.07;1.30;;;7.70;99.90;;;;;;3605778;39;20032;-60
2021/04/16 07:05:10;;;;;;;7.13;1.85;;;7.90;99.90;;;;;;3607249;39;20654;-60
2021/04/16 07:07:40;;;;;;;5.05;1.13;;;7.90;99.90;;;;;;3606242;39;20403;-60
2021/04/16 07:10:19;;;;;;;5.10;1.30;;;7.70;99.90;;;;;;3603329;39;20042;-60
2021/04/16 07:12:46;;;;;;;4.35;1.85;;;7.70;99.90;;;;;;3601030;39;20170;-60
2021/04/16 07:15:19;;;;;;;7.35;2.50;;;7.70;99.90;;;;;;3607903;39;20027;-60
2021/04/16 07:17:47;;;;;;;6.25;2.13;;;7.80;99.90;;;;;;3601718;39;20724;-60
2021/04/16 07:20:20;;;;;;;7.05;1.55;;;8.00;99.90;;;;;;3603492;39;20675;-60
2021/04/16 07:22:51;;;;;;;10.43;1.35;;;8.10;99.90;;;;;;3604566;39;20033;-60
2021/04/16 07:25:29;;;;;;;3.88;1.30;;;8.30;99.90;;;;;;3604830;39;20107;-60
2021/04/16 07:28:02;;;;;;;6.18;1.33;;;8.10;99.90;;;;;;3601840;39;20111;-60
2021/04/16 07:30:44;;;;;;;10.85;1.40;;;8.20;99.90;;;;;;3601896;39;20038;-60
2021/04/16 07:33:34;;;;;;;5.13;1.30;;;8.20;99.90;;;;;;3605333;39;20047;-60
2021/04/16 07:36:39;;;;;;;2.53;0.90;;;8.40;99.90;;;;;;3604131;39;20046;-60
2021/04/16 07:39:14;;;;;;;5.35;1.20;;;8.30;99.90;;;;;;3593631;39;20043;-60
2021/04/16 07:41:45;;;;;;;3.10;1.52;;;8.40;99.90;;;;;;3604002;39;20036;-60
2021/04/16 07:44:37;;;;;;;4.72;1.13;;;8.40;99.90;;;;;;3601751;39;20102;-60
2021/04/16 07:47:25;;;;;;;8.18;1.38;;;8.70;99.90;;;;;;3602768;39;20048;-60
2021/04/16 07:50:00;;;;;;;5.00;1.70;;;8.80;99.90;;;;;;3603495;39;20104;-60
2021/04/16 07:52:42;;;;;;;2.33;1.20;;;8.80;99.90;;;;;;3603860;39;20039;-60
2021/04/16 07:55:25;;;;;;;6.43;1.25;;;9.10;99.70;;;;;;3604715;39;20040;-60
2021/04/16 07:57:51;;;;;;;4.07;1.13;;;9.10;99.90;;;;;;3604719;39;20062;-60
2021/04/16 08:00:23;;;;;;;2.83;1.05;;;9.40;99.00;;;;;;3605575;39;20063;-60
2021/04/16 08:03:03;;;;;;;3.55;1.15;;;9.60;99.30;;;;;;3603311;39;20127;-60
2021/04/16 08:05:34;;;;;;;6.75;1.42;;;9.70;98.10;;;;;;3603324;39;20047;-60
2021/04/16 08:08:30;;;;;;;5.05;1.45;;;9.80;98.50;;;;;;3603267;39;20039;-60
2021/04/16 08:11:10;;;;;;;7.53;1.38;;;10.00;99.30;;;;;;3602834;39;20113;-60
2021/04/16 08:13:42;;;;;;;6.05;1.40;;;10.30;97.70;;;;;;3600515;39;20036;-67
2021/04/16 08:16:18;;;;;;;3.70;1.40;;;10.20;97.90;;;;;;3606074;39;20101;-67
2021/04/16 08:18:47;;;;;;;6.38;1.20;;;10.30;97.30;;;;;;3607705;39;20076;-67
2021/04/16 08:21:19;;;;;;;5.15;1.30;;;10.30;98.00;;;;;;3605177;39;20076;-67
2021/04/16 08:24:02;;;;;;;8.13;1.48;;;10.60;95.50;;;;;;3605165;39;20405;-68
2021/04/16 08:26:33;;;;;;;4.90;1.33;;;10.60;96.00;;;;;;3602353;39;20046;-70
2021/04/16 08:29:08;;;;;;;4.25;1.50;;;10.80;95.50;;;;;;3605110;39;20047;-67
2021/04/16 08:31:40;;;;;;;5.97;1.40;;;10.70;95.30;;;;;;3605746;39;20027;-68
2021/04/16 08:34:13;;;;;;;3.85;1.20;;;10.50;95.20;;;;;;3602706;39;20677;-67
2021/04/16 08:36:41;;;;;;;3.58;1.45;;;10.60;95.70;;;;;;3596535;39;20032;-67
2021/04/16 08:39:30;;;;;;;4.50;1.35;;;10.60;95.90;;;;;;3604562;39;20049;-73
2021/04/16 08:42:09;;;;;;;5.00;1.20;;;10.60;96.00;;;;;;3604637;39;20408;-67
2021/04/16 08:44:43;;;;;;;2.08;0.93;;;10.50;95.50;;;;;;3606709;39;20040;-67
2021/04/16 08:47:50;;;;;;;10.55;1.90;;;10.80;95.50;;;;;;3605598;39;20112;-67
2021/04/16 08:50:16;;;;;;;6.88;2.08;;;10.80;95.10;;;;;;3604368;39;20064;-68
2021/04/16 08:52:47;;;;;;;6.35;1.50;;;10.80;95.20;;;;;;3602619;39;20381;-67
2021/04/16 08:55:36;;;;;;;10.63;1.33;;;10.90;95.30;;;;;;3603659;39;20067;-68
2021/04/16 08:58:09;;;;;;;8.60;1.88;;;11.00;95.20;;;;;;3608418;39;20042;-68
2021/04/16 09:00:51;;;;;;;6.07;1.40;;;11.20;95.20;;;;;;3604234;39;20047;-67
2021/04/16 09:03:38;;;;;;;5.20;1.13;;;11.30;94.70;;;;;;3605012;39;20878;-68
2021/04/16 09:06:05;;;;;;;6.32;1.20;;;11.40;93.70;;;;;;3606376;39;20036;-68
2021/04/16 09:08:45;;;;;;;7.53;1.25;;;11.50;94.00;;;;;;3606680;39;20050;-68
2021/04/16 09:11:12;;;;;;;14.80;1.90;;;11.50;93.50;;;;;;3602948;39;20361;-67
2021/04/16 09:13:38;;;;;;;5.95;1.58;;;11.40;92.50;;;;;;3605942;39;20116;-68
2021/04/16 09:16:16;;;;;;;6.15;1.35;;;11.40;93.40;;;;;;3603714;39;20083;-68
2021/04/16 09:19:22;;;;;;;9.18;1.92;;;11.70;92.30;;;;;;3604958;39;20035;-68
2021/04/16 09:22:12;;;;;;;;;;;12.10;92.00;;;;;;3604685;39;20297;-68
2021/04/16 09:24:54;;;;;;;3.55;1.30;;;12.30;89.70;;;;;;3598897;39;19933;-68
2021/04/16 09:27:25;;;;;;;9.45;1.40;;;12.60;87.10;;;;;;3596230;39;20051;-68
2021/04/16 09:30:13;;;;;;;5.97;1.30;;;13.20;91.00;;;;;;3605513;39;20047;-68
2021/04/16 09:32:47;;;;;;;5.25;1.10;;;13.80;78.40;;;;;;3602712;39;20056;-68
2021/04/16 09:35:18;;;;;;;3.03;1.17;;;13.90;79.80;;;;;;3601853;39;20038;-68
2021/04/16 09:38:11;;;;;;;9.57;2.00;;;13.60;79.00;;;;;;3606366;39;20047;-68
2021/04/16 09:40:37;;;;;;;3.63;1.30;;;13.50;77.70;;;;;;3594215;39;20039;-68
2021/04/16 09:43:09;;;;;;;5.72;1.45;;;13.40;76.10;;;;;;3604391;39;20046;-67
2021/04/16 09:45:35;;;;;;;6.25;1.40;;;13.30;79.90;;;;;;3603339;39;20088;-67
2021/04/16 09:48:22;;;;;;;4.72;1.42;;;13.30;76.50;;;;;;3601974;39;20150;-68
2021/04/16 09:51:27;;;;;;;8.43;2.33;;;13.40;76.10;;;;;;3602049;39;20042;-67
2021/04/16 09:54:07;;;;;;;7.32;1.17;;;13.20;78.50;;;;;;3602684;39;20039;-67
2021/04/16 09:56:33;;;;;;;4.93;1.40;;;13.40;80.60;;;;;;3603635;39;20048;-67
2021/04/16 09:59:03;;;;;;;6.05;1.42;;;13.70;76.90;;;;;;3603681;39;20046;-67
2021/04/16 10:01:31;;;;;;;6.82;1.30;;;13.50;76.10;;;;;;3603832;39;20801;-68
2021/04/16 10:04:02;;;;;;;10.00;4.10;;;13.50;78.80;;;;;;3602955;39;20064;-67
2021/04/16 10:06:28;;;;;;;6.53;1.15;;;13.40;79.00;;;;;;3602957;39;20344;-67
2021/04/16 10:09:16;;;;;;;3.75;1.30;;;13.30;76.00;;;;;;3605334;39;20023;-68
2021/04/16 10:12:00;;;;;;;4.72;1.15;;;13.10;79.10;;;;;;3602485;39;20055;-68
2021/04/16 10:14:36;;;;;;;3.85;1.60;;;13.10;76.20;;;;;;3604292;39;20039;-68
2021/04/16 10:17:23;;;;;;;6.03;1.63;;;13.00;81.90;;;;;;3601630;39;20072;-69
2021/04/16 10:19:52;;;;;;;5.53;1.40;;;13.10;81.00;;;;;;3604508;39;20039;-68
2021/04/16 10:22:26;;;;;;;3.50;1.33;;;13.20;80.00;;;;;;3602910;39;20091;-68
2021/04/16 12:39:33;;;;;;;10.52;2.00;;;16.70;52.60;;;;;;3603371;39;19980;-67
2021/04/16 12:42:03;;;;;;;4.95;1.70;;;16.50;52.80;;;;;;3601450;39;20062;-67
2021/04/16 12:44:39;;;;;;;5.63;1.67;;;16.70;53.20;;;;;;3603081;39;20054;-67
2021/04/16 12:47:07;;;;;;;4.53;2.03;;;17.00;51.90;;;;;;3603543;39;20048;-68
2021/04/16 12:49:33;;;;;;;5.78;1.83;;;17.40;51.70;;;;;;3605526;39;20043;-68
2021/04/16 12:51:58;;;;;;;7.28;2.50;;;18.10;50.10;;;;;;3603296;39;20866;-68
2021/04/16 12:54:24;;;;;;;9.15;3.90;;;18.30;49.20;;;;;;3603542;39;20079;-68
2021/04/16 12:56:50;;;;;;;7.70;1.58;;;18.00;50.80;;;;;;3603116;39;20331;-68
2021/04/16 12:59:24;;;;;;;2.78;1.27;;;18.60;48.20;;;;;;3605023;39;20044;-68
2021/04/16 13:01:52;;;;;;;11.77;7.45;;;19.00;47.70;;;;;;3603334;39;20043;-61
2021/04/16 13:04:21;;;;;;;5.75;1.92;;;19.00;48.10;;;;;;3605026;39;20062;-61
2021/04/16 13:06:49;;;;;;;4.85;2.10;;;18.60;47.30;;;;;;3601548;39;20035;-63
2021/04/16 13:09:17;;;;;;;11.85;2.17;;;18.00;48.20;;;;;;3604053;39;20042;-61
2021/04/16 13:11:47;;;;;;;6.85;2.00;;;17.80;48.50;;;;;;3604313;39;20075;-61
2021/04/16 13:14:13;;;;;;;8.88;2.00;;;17.20;49.50;;;;;;3603695;39;20167;-61
2021/04/16 13:16:39;;;;;;;2.47;1.65;;;16.70;50.60;;;;;;3604523;39;20739;-61
2021/04/16 13:19:27;;;;;;;8.10;2.90;;;16.80;50.90;;;;;;3603268;39;20038;-61
2021/04/16 13:21:59;;;;;;;6.85;2.25;;;16.30;53.00;;;;;;3603377;39;20023;-61
2021/04/16 13:24:24;;;;;;;13.93;6.95;;;15.70;53.10;;;;;;3604005;39;20068;-61
2021/04/16 13:26:51;;;;;;;8.20;2.97;;;15.70;52.90;;;;;;3603214;39;20871;-67
2021/04/16 13:29:16;;;;;;;9.80;4.70;;;15.70;51.90;;;;;;3604827;39;20051;-61
2021/04/16 13:31:44;;;;;;;5.80;2.10;;;15.80;51.80;;;;;;3604968;39;20059;-62
2021/04/16 13:34:10;;;;;;;10.43;2.15;;;16.70;51.00;;;;;;3592613;39;20073;-61
2021/04/16 13:36:36;;;;;;;12.48;4.68;;;17.40;49.20;;;;;;3603918;39;20087;-61
2021/04/16 13:39:04;;;;;;;13.40;4.90;;;17.90;48.10;;;;;;3602595;39;20198;-61
2021/04/16 13:41:30;;;;;;;6.47;1.95;;;18.30;46.80;;;;;;3603923;39;20460;-62
2021/04/16 13:43:56;;;;;;;26.77;11.38;;;18.60;45.80;;;;;;3604038;39;20032;-62
2021/04/16 13:46:25;;;;;;;5.88;2.67;;;18.40;46.20;;;;;;3607353;39;20039;-63
2021/04/16 13:48:51;;;;;;;6.10;2.42;;;18.60;46.10;;;;;;3603214;39;20054;-61
2021/04/16 13:51:21;;;;;;;7.93;3.58;;;19.60;44.60;;;;;;3603958;39;20030;-61
2021/04/16 13:53:46;;;;;;;4.45;2.20;;;20.10;43.10;;;;;;3602393;39;20145;-62
2021/04/16 13:56:13;;;;;;;7.60;1.90;;;20.00;42.50;;;;;;3605373;39;20035;-61
2021/04/16 13:58:39;;;;;;;4.78;1.67;;;20.90;41.00;;;;;;3602133;39;20059;-62
2021/04/16 14:01:08;;;;;;;4.47;1.35;;;21.10;40.70;;;;;;3602488;39;20033;-62
2021/04/16 14:03:36;;;;;;;5.57;1.70;;;21.30;41.50;;;;;;3603454;39;20722;-62
2021/04/16 14:06:11;;;;;;;6.03;1.98;;;21.70;40.90;;;;;;3601002;39;20405;-62
2021/04/16 14:08:43;;;;;;;6.32;1.50;;;22.30;38.90;;;;;;3602480;39;20032;-62
2021/04/16 14:11:09;;;;;;;5.35;1.23;;;21.50;40.00;;;;;;3602454;39;20301;-62
2021/04/16 14:13:35;;;;;;;2.63;1.27;;;21.80;37.80;;;;;;3603415;39;20027;-61
2021/04/16 14:16:07;;;;;;;5.57;2.47;;;22.40;37.70;;;;;;3601041;39;20040;-62
2021/04/16 14:18:40;;;;;;;3.42;1.23;;;22.80;37.60;;;;;;3600378;39;20079;-62
2021/04/16 14:21:10;;;;;;;2.88;0.95;;;22.70;37.80;;;;;;3603724;39;20059;-62
2021/04/16 14:23:36;;;;;;;4.30;1.23;;;22.10;37.30;;;;;;3606701;39;20027;-62
2021/04/16 14:26:03;;;;;;;2.70;1.23;;;22.00;37.40;;;;;;3604960;39;20050;-68
2021/04/16 14:28:29;;;;;;;6.70;1.15;;;22.10;37.80;;;;;;3604372;39;20036;-68
2021/04/16 14:30:55;;;;;;;3.25;1.00;;;21.90;37.70;;;;;;3602338;39;20129;-69
2021/04/16 14:33:33;;;;;;;5.55;1.17;;;21.50;37.30;;;;;;3603019;39;20409;-68
2021/04/16 14:36:00;;;;;;;5.57;0.93;;;21.00;38.40;;;;;;3601514;39;20055;-68
2021/04/16 14:38:27;;;;;;;2.75;1.23;;;20.20;39.60;;;;;;3604262;39;20023;-68
2021/04/16 14:40:53;;;;;;;4.20;1.30;;;19.80;40.10;;;;;;3606594;39;20031;-69
2021/04/16 14:43:21;;;;;;;5.35;1.50;;;18.50;41.30;;;;;;3602758;39;20839;-69
2021/04/16 14:45:49;;;;;;;3.15;1.35;;;17.80;42.80;;;;;;3604881;39;20093;-68
2021/04/16 14:48:16;;;;;;;4.75;1.10;;;17.10;43.00;;;;;;3604839;39;20035;-68
2021/04/16 14:50:42;;;;;;;6.30;1.98;;;16.70;44.60;;;;;;3602520;39;20042;-68
2021/04/16 14:53:26;;;;;;;8.52;3.03;;;16.60;45.70;;;;;;3605336;39;20043;-68
2021/04/16 14:55:52;;;;;;;7.32;3.80;;;16.70;45.60;;;;;;3605362;39;20038;-68
2021/04/16 14:58:32;;;;;;;6.82;1.58;;;17.30;45.70;;;;;;3603577;39;20720;-68
2021/04/16 15:00:58;;;;;;;8.85;1.77;;;18.30;44.10;;;;;;3603008;39;20035;-68
2021/04/16 15:03:24;;;;;;;7.38;1.83;;;18.20;43.30;;;;;;3600362;39;20040;-68
2021/04/16 15:05:50;;;;;;;6.53;2.50;;;17.70;44.20;;;;;;3600102;39;20055;-68
2021/04/16 15:08:29;;;;;;;7.13;3.85;;;17.70;45.50;;;;;;3602393;39;20044;-68
2021/04/16 15:11:02;;;;;;;3.38;2.60;;;18.50;43.40;;;;;;3603823;39;20692;-68
2021/04/16 15:13:30;;;;;;;6.35;2.08;;;18.90;43.60;;;;;;3604315;39;20044;-68
2021/04/16 15:16:00;;;;;;;4.45;1.40;;;19.50;42.30;;;;;;3602335;39;20083;-68
2021/04/16 15:18:27;;;;;;;8.10;1.35;;;20.20;40.90;;;;;;3604228;39;20360;-68
2021/04/16 15:20:53;;;;;;;3.50;1.10;;;20.20;40.90;;;;;;3593714;39;20031;-68
2021/04/16 15:23:18;;;;;;;4.05;1.40;;;20.50;39.50;;;;;;3602558;39;20032;-68